createdAt,value
2018-04-11T00:00:55.380Z,6.50
2018-04-11T00:03:23.670Z,4.72
2018-04-11T00:05:51.202Z,4.82
2018-04-11T00:08:19.515Z,5.55
2018-04-11T00:10:47.028Z,5.22
2018-04-11T00:13:14.568Z,5.03
2018-04-11T00:15:42.130Z,5.15
2018-04-11T00:18:09.644Z,4.85
2018-04-11T00:20:37.172Z,5.87
2018-04-11T00:23:04.722Z,7.70
2018-04-11T00:25:32.251Z,7.82
2018-04-11T00:27:59.794Z,7.53
2018-04-11T00:30:27.340Z,7.57
2018-04-11T00:32:54.876Z,8.23
2018-04-11T00:35:23.153Z,7.18
2018-04-11T00:37:51.456Z,7.85
2018-04-11T00:40:18.985Z,6.35
2018-04-11T00:42:47.286Z,6.65
2018-04-11T00:45:14.843Z,6.00
2018-04-11T00:47:42.384Z,6.12
2018-04-11T00:50:10.677Z,5.47
2018-04-11T00:52:38.212Z,5.80
2018-04-11T00:55:06.497Z,6.37
2018-04-11T00:57:34.781Z,6.28
2018-04-11T01:00:03.101Z,7.37
2018-04-11T01:02:30.630Z,8.25
2018-04-11T01:04:58.149Z,7.87
2018-04-11T01:07:25.720Z,7.45
2018-04-11T01:09:54.014Z,8.20
2018-04-11T01:12:21.542Z,7.05
2018-04-11T01:14:49.083Z,8.45
2018-04-11T01:17:16.604Z,8.43
2018-04-11T01:19:44.140Z,8.23
2018-04-11T01:22:12.472Z,8.60
2018-04-11T01:24:39.998Z,8.07
2018-04-11T01:27:07.539Z,7.70
2018-04-11T01:29:35.871Z,9.07
2018-04-11T01:32:03.410Z,8.30
2018-04-11T01:34:30.934Z,9.05
2018-04-11T01:36:59.249Z,9.15
2018-04-11T01:39:26.790Z,10.30
2018-04-11T01:41:54.317Z,10.65
2018-04-11T01:44:22.654Z,10.43
2018-04-11T01:46:50.189Z,9.70
2018-04-11T01:49:17.709Z,9.30
2018-04-11T01:51:45.276Z,10.30
2018-04-11T01:54:13.582Z,10.45
2018-04-11T01:56:41.095Z,9.25
2018-04-11T01:59:08.661Z,9.15
2018-04-11T02:01:36.940Z,8.73
2018-04-11T02:04:04.464Z,8.52
2018-04-11T02:06:32.018Z,9.68
2018-04-11T02:08:59.536Z,9.77
2018-04-11T02:11:27.825Z,7.45
2018-04-11T02:13:55.388Z,9.65
2018-04-11T02:16:22.922Z,8.45
2018-04-11T02:18:51.237Z,8.88
2018-04-11T02:21:18.770Z,9.93
2018-04-11T02:23:47.078Z,8.02
2018-04-11T02:26:14.598Z,9.60
2018-04-11T02:28:42.906Z,7.28
2018-04-11T02:31:10.802Z,8.85
2018-04-11T02:33:38.321Z,9.98
2018-04-11T02:36:05.859Z,8.43
2018-04-11T02:38:34.161Z,8.80
2018-04-11T02:41:01.679Z,7.95
2018-04-11T02:43:29.230Z,8.68
2018-04-11T02:45:56.758Z,9.60
2018-04-11T02:48:24.288Z,8.60
2018-04-11T02:50:51.834Z,9.02
2018-04-11T02:53:20.134Z,9.52
2018-04-11T02:55:47.661Z,8.43
2018-04-11T02:58:15.969Z,9.38
2018-04-11T03:00:43.473Z,9.00
2018-04-11T03:03:10.994Z,8.35
2018-04-11T03:05:38.529Z,7.72
2018-04-11T03:08:06.815Z,8.10
2018-04-11T03:10:34.345Z,8.80
2018-04-11T03:13:02.656Z,8.15
2018-04-11T03:15:30.187Z,11.40
2018-04-11T03:17:58.481Z,10.77
2018-04-11T03:20:26.020Z,9.90
2018-04-11T03:22:54.305Z,9.52
2018-04-11T03:25:22.606Z,9.82
2018-04-11T03:27:50.141Z,9.65
2018-04-11T03:30:18.427Z,8.68
2018-04-11T03:32:45.952Z,8.77
2018-04-11T03:35:13.496Z,8.93
2018-04-11T03:37:41.026Z,10.88
2018-04-11T03:40:08.536Z,11.57
2018-04-11T03:42:36.087Z,11.27
2018-04-11T03:45:03.623Z,10.70
2018-04-11T03:47:31.148Z,13.18
2018-04-11T03:49:58.701Z,11.80
2018-04-11T03:52:26.222Z,11.05
2018-04-11T03:54:53.732Z,10.13
2018-04-11T03:57:21.288Z,12.80
2018-04-11T03:59:48.808Z,11.15
2018-04-11T04:02:17.111Z,12.02
2018-04-11T04:04:45.493Z,10.70
2018-04-11T04:07:13.012Z,11.05
2018-04-11T04:09:40.549Z,11.02
2018-04-11T04:12:08.101Z,9.18
2018-04-11T04:14:47.483Z,10.45
2018-04-11T04:17:27.630Z,9.25
2018-04-11T04:20:06.963Z,10.88
2018-04-11T04:22:34.522Z,10.50
2018-04-11T04:25:02.057Z,12.20
2018-04-11T04:27:29.573Z,12.80
2018-04-11T04:29:57.141Z,11.63
2018-04-11T04:32:24.661Z,14.48
2018-04-11T04:34:52.197Z,12.90
2018-04-11T04:37:19.753Z,12.13
2018-04-11T04:39:47.272Z,10.52
2018-04-11T04:42:14.801Z,11.95
2018-04-11T04:44:43.107Z,12.57
2018-04-11T04:47:10.627Z,12.37
2018-04-11T04:49:38.149Z,11.95
2018-04-11T04:52:05.695Z,13.43
2018-04-11T04:54:33.237Z,12.50
2018-04-11T04:57:00.772Z,14.13
2018-04-11T04:59:29.083Z,12.23
2018-04-11T05:01:56.600Z,12.70
2018-04-11T05:04:24.138Z,11.57
2018-04-11T05:06:51.696Z,11.43
2018-04-11T05:09:19.222Z,12.13
2018-04-11T05:11:46.761Z,11.45
2018-04-11T05:14:14.310Z,11.30
2018-04-11T05:16:42.609Z,10.98
2018-04-11T05:19:10.124Z,13.70
2018-04-11T05:21:37.672Z,16.80
2018-04-11T05:24:05.208Z,15.45
2018-04-11T05:26:32.728Z,14.63
2018-04-11T05:29:00.284Z,12.63
2018-04-11T05:31:28.560Z,12.93
2018-04-11T05:33:56.862Z,13.30
2018-04-11T05:36:24.411Z,11.32
2018-04-11T05:38:51.930Z,11.70
2018-04-11T05:41:19.465Z,11.35
2018-04-11T05:43:47.030Z,12.57
2018-04-11T05:46:14.549Z,10.80
2018-04-11T05:48:42.069Z,9.68
2018-04-11T05:51:09.635Z,8.00
2018-04-11T05:53:37.153Z,12.10
2018-04-11T05:56:04.672Z,11.55
2018-04-11T05:58:33.001Z,11.98
2018-04-11T06:01:00.538Z,9.95
2018-04-11T06:03:28.079Z,11.35
2018-04-11T06:05:55.673Z,12.32
2018-04-11T06:08:23.156Z,12.23
2018-04-11T06:10:50.697Z,11.27
2018-04-11T06:13:18.254Z,11.00
2018-04-11T06:15:45.780Z,11.00
2018-04-11T06:18:13.302Z,10.45
2018-04-11T06:20:41.628Z,10.13
2018-04-11T06:23:09.160Z,9.38
2018-04-11T06:25:36.691Z,9.77
2018-04-11T06:28:04.287Z,9.75
2018-04-11T06:30:32.565Z,9.07
2018-04-11T06:33:00.093Z,8.60
2018-04-11T06:35:27.652Z,8.27
2018-04-11T06:37:55.942Z,8.47
2018-04-11T06:40:24.237Z,7.40
2018-04-11T06:42:51.795Z,6.93
2018-04-11T06:45:19.447Z,6.57
2018-04-11T06:47:47.027Z,6.37
2018-04-11T06:50:14.595Z,5.27
2018-04-11T06:52:42.117Z,6.10
2018-04-11T06:55:10.430Z,5.77
2018-04-11T06:57:37.999Z,5.67
2018-04-11T07:00:05.543Z,6.47
2018-04-11T07:02:33.063Z,6.00
2018-04-11T07:05:01.377Z,5.40
2018-04-11T07:07:28.914Z,4.87
2018-04-11T07:09:56.432Z,5.13
2018-04-11T07:12:24.042Z,5.83
2018-04-11T07:14:51.569Z,6.00
2018-04-11T07:17:19.097Z,5.77
2018-04-11T07:19:46.663Z,5.77
2018-04-11T07:22:14.213Z,6.07
2018-04-11T07:24:41.746Z,6.03
2018-04-11T07:27:09.298Z,6.37
2018-04-11T07:29:36.819Z,5.97
2018-04-11T07:32:04.351Z,5.97
2018-04-11T07:34:31.917Z,5.40
2018-04-11T07:36:59.433Z,5.17
2018-04-11T07:39:26.969Z,6.30
2018-04-11T07:41:55.396Z,4.53
2018-04-11T07:44:22.912Z,4.60
2018-04-11T07:46:51.192Z,4.13
2018-04-11T07:49:19.516Z,4.70
2018-04-11T07:51:47.026Z,5.43
2018-04-11T07:54:15.312Z,4.20
2018-04-11T07:56:42.856Z,4.30
2018-04-11T07:59:11.147Z,5.80
2018-04-11T08:01:39.432Z,4.50
2018-04-11T08:04:06.984Z,4.63
2018-04-11T08:06:34.509Z,4.47
2018-04-11T08:09:02.024Z,4.00
2018-04-11T08:11:29.587Z,3.20
2018-04-11T08:13:57.146Z,3.07
2018-04-11T08:16:24.672Z,3.20
2018-04-11T08:18:52.977Z,3.07
2018-04-11T08:21:20.512Z,2.60
2018-04-11T08:23:47.548Z,2.33
2018-04-11T08:26:15.851Z,2.30
2018-04-11T08:28:43.365Z,2.93
2018-04-11T08:31:10.877Z,2.10
2018-04-11T08:33:38.430Z,2.43
2018-04-11T08:36:05.940Z,2.97
2018-04-11T08:38:33.461Z,2.57
2018-04-11T08:41:00.995Z,2.00
2018-04-11T08:43:28.534Z,2.30
2018-04-11T08:45:56.877Z,2.20
2018-04-11T08:48:24.401Z,2.67
2018-04-11T08:50:51.931Z,2.80
2018-04-11T08:53:20.199Z,2.80
2018-04-11T08:55:48.531Z,2.40
2018-04-11T08:58:16.056Z,2.80
2018-04-11T09:00:43.616Z,3.00
2018-04-11T09:03:11.164Z,2.70
2018-04-11T09:05:39.434Z,2.87
2018-04-11T09:08:07.712Z,2.30
2018-04-11T09:10:36.029Z,3.00
2018-04-11T09:13:03.549Z,2.60
2018-04-11T09:15:31.833Z,2.70
2018-04-11T09:18:00.144Z,2.90
2018-04-11T09:20:27.666Z,2.37
2018-04-11T09:22:55.945Z,2.67
2018-04-11T09:25:23.511Z,2.70
2018-04-11T09:27:51.812Z,2.67
2018-04-11T09:30:20.395Z,2.70
2018-04-11T09:32:47.942Z,2.03
2018-04-11T09:35:15.488Z,1.73
2018-04-11T09:37:43.018Z,2.20
2018-04-11T09:40:10.567Z,2.50
2018-04-11T09:42:38.097Z,2.27
2018-04-11T09:45:05.599Z,2.10
2018-04-11T09:47:33.209Z,2.63
2018-04-11T09:50:00.726Z,2.10
2018-04-11T09:52:29.016Z,1.97
2018-04-11T09:54:57.333Z,2.50
2018-04-11T09:57:24.842Z,2.23
2018-04-11T09:59:53.134Z,2.27
2018-04-11T10:02:24.533Z,1.93
2018-04-11T10:04:52.053Z,2.00
2018-04-11T10:07:19.591Z,2.70
2018-04-11T10:09:47.903Z,1.90
2018-04-11T10:12:15.429Z,1.93
2018-04-11T10:14:43.708Z,2.17
2018-04-11T10:17:12.042Z,1.90
2018-04-11T10:19:39.576Z,1.50
2018-04-11T10:22:07.087Z,1.73
2018-04-11T10:24:35.432Z,1.53
2018-04-11T10:27:02.944Z,1.43
2018-04-11T10:29:30.475Z,1.53
2018-04-11T10:31:58.056Z,1.30
2018-04-11T10:34:25.603Z,2.00
2018-04-11T10:36:53.120Z,1.83
2018-04-11T10:39:20.680Z,1.40
2018-04-11T10:41:48.204Z,1.80
2018-04-11T10:44:15.724Z,2.20
2018-04-11T10:46:43.270Z,1.53
2018-04-11T10:49:10.807Z,1.43
2018-04-11T10:51:38.343Z,1.43
2018-04-11T10:54:05.898Z,1.73
2018-04-11T10:56:33.425Z,1.90
2018-04-11T10:59:01.732Z,1.90
2018-04-11T11:01:29.291Z,2.63
2018-04-11T11:03:56.818Z,2.80
2018-04-11T11:06:24.334Z,3.50
2018-04-11T11:08:51.878Z,4.73
2018-04-11T11:11:19.417Z,2.87
2018-04-11T11:13:47.705Z,3.47
2018-04-11T11:16:15.251Z,3.10
2018-04-11T11:18:43.551Z,3.53
2018-04-11T11:21:11.078Z,3.60
2018-04-11T11:23:39.390Z,3.60
2018-04-11T11:26:06.907Z,3.27
2018-04-11T11:28:34.431Z,3.47
2018-04-11T11:31:01.974Z,3.60
2018-04-11T11:33:29.510Z,4.40
2018-04-11T11:35:57.052Z,4.70
2018-04-11T11:38:25.370Z,3.83
2018-04-11T11:40:52.897Z,6.37
2018-04-11T11:43:21.204Z,4.97
2018-04-11T11:45:48.763Z,3.70
2018-04-11T11:48:16.296Z,4.43
2018-04-11T11:50:44.580Z,5.23
2018-04-11T11:53:12.115Z,3.43
2018-04-11T11:55:40.408Z,5.87
2018-04-11T11:58:07.946Z,5.50
2018-04-11T12:00:36.251Z,4.47
2018-04-11T12:03:03.769Z,4.73
2018-04-11T12:05:31.291Z,3.80
2018-04-11T12:07:58.825Z,4.60
2018-04-11T12:10:26.336Z,3.60
2018-04-11T12:12:53.859Z,5.23
2018-04-11T12:15:21.501Z,5.17
2018-04-11T12:17:49.023Z,4.93
2018-04-11T12:20:17.831Z,5.73
2018-04-11T12:22:46.152Z,3.90
2018-04-11T12:25:13.674Z,5.50
2018-04-11T12:27:41.957Z,4.57
2018-04-11T12:30:10.276Z,5.53
2018-04-11T12:32:37.795Z,4.00
2018-04-11T12:35:06.108Z,3.67
2018-04-11T12:37:33.645Z,2.77
2018-04-11T12:40:01.165Z,3.90
2018-04-11T12:42:29.466Z,4.17
2018-04-11T12:44:57.010Z,3.50
2018-04-11T12:47:25.302Z,3.10
2018-04-11T12:49:52.820Z,3.53
2018-04-11T12:52:20.391Z,3.43
2018-04-11T12:54:47.917Z,3.60
2018-04-11T12:57:15.445Z,3.73
2018-04-11T12:59:43.002Z,3.13
2018-04-11T13:02:10.536Z,3.13
2018-04-11T13:04:38.844Z,3.57
2018-04-11T13:07:06.397Z,4.50
2018-04-11T13:09:33.922Z,3.80
2018-04-11T13:12:01.447Z,4.17
2018-04-11T13:14:28.984Z,3.50
2018-04-11T13:16:56.496Z,3.50
2018-04-11T13:19:24.008Z,4.07
2018-04-11T13:21:52.278Z,3.30
2018-04-11T13:24:19.815Z,3.33
2018-04-11T13:26:47.362Z,3.70
2018-04-11T13:29:15.710Z,3.33
2018-04-11T13:31:43.245Z,5.60
2018-04-11T13:34:10.788Z,3.13
2018-04-11T13:36:38.346Z,3.10
2018-04-11T13:39:05.889Z,3.20
2018-04-11T13:41:34.174Z,2.90
2018-04-11T13:44:01.719Z,2.80
2018-04-11T13:46:30.010Z,2.77
2018-04-11T13:48:57.529Z,2.50
2018-04-11T13:51:25.559Z,2.60
2018-04-11T13:53:53.105Z,2.40
2018-04-11T13:56:20.659Z,2.60
2018-04-11T13:58:48.952Z,2.47
2018-04-11T14:01:16.471Z,2.40
2018-04-11T14:03:44.778Z,2.40
2018-04-11T14:06:12.339Z,2.03
2018-04-11T14:08:39.864Z,2.27
2018-04-11T14:11:08.158Z,2.20
2018-04-11T14:13:36.494Z,1.87
2018-04-11T14:16:04.017Z,3.10
2018-04-11T14:18:31.544Z,2.40
2018-04-11T14:20:59.865Z,2.43
2018-04-11T14:23:27.427Z,2.30
2018-04-11T14:25:54.964Z,2.20
2018-04-11T14:28:22.513Z,2.00
2018-04-11T14:30:50.050Z,1.93
2018-04-11T14:33:18.328Z,1.80
2018-04-11T14:35:46.644Z,1.50
2018-04-11T14:38:14.180Z,1.57
2018-04-11T14:40:42.490Z,1.70
2018-04-11T14:43:10.039Z,1.97
2018-04-11T14:45:37.549Z,1.50
2018-04-11T14:48:05.056Z,1.43
2018-04-11T14:50:32.614Z,1.73
2018-04-11T14:53:00.146Z,1.60
2018-04-11T14:55:28.456Z,2.90
2018-04-11T14:57:56.030Z,1.80
2018-04-11T15:00:23.556Z,2.27
2018-04-11T15:02:51.068Z,1.83
2018-04-11T15:05:18.627Z,1.50
2018-04-11T15:07:46.151Z,2.70
2018-04-11T15:10:13.913Z,1.20
2018-04-11T15:12:41.471Z,1.40
2018-04-11T15:15:09.016Z,1.70
2018-04-11T15:17:36.554Z,1.57
2018-04-11T15:20:04.857Z,1.67
2018-04-11T15:22:32.385Z,1.40
2018-04-11T15:25:00.661Z,1.57
2018-04-11T15:27:28.986Z,1.37
2018-04-11T15:29:56.504Z,1.47
2018-04-11T15:32:24.780Z,1.53
2018-04-11T15:34:53.108Z,1.37
2018-04-11T15:37:20.615Z,1.40
2018-04-11T15:39:48.892Z,1.10
2018-04-11T15:42:17.209Z,1.53
2018-04-11T15:44:44.741Z,2.30
2018-04-11T15:47:12.271Z,3.20
2018-04-11T15:49:39.818Z,2.70
2018-04-11T15:52:07.354Z,3.70
2018-04-11T15:54:34.890Z,3.57
2018-04-11T15:57:02.457Z,2.90
2018-04-11T15:59:29.982Z,2.83
2018-04-11T16:01:58.274Z,3.13
2018-04-11T16:04:25.842Z,2.93
2018-04-11T16:06:53.375Z,3.03
2018-04-11T16:09:21.658Z,2.27
2018-04-11T16:11:49.982Z,2.90
2018-04-11T16:14:17.507Z,2.20
2018-04-11T16:16:45.043Z,1.97
2018-04-11T16:19:13.388Z,3.03
2018-04-11T16:21:40.909Z,2.87
2018-04-11T16:24:08.444Z,1.40
2018-04-11T16:26:36.756Z,1.30
2018-04-11T16:29:04.313Z,1.60
2018-04-11T16:31:31.836Z,1.97
2018-04-11T16:34:00.255Z,1.40
2018-04-11T16:36:27.776Z,1.63
2018-04-11T16:38:56.068Z,1.33
2018-04-11T16:41:23.631Z,2.37
2018-04-11T16:43:51.142Z,1.33
2018-04-11T16:46:18.673Z,1.93
2018-04-11T16:48:47.060Z,2.27
2018-04-11T16:51:14.601Z,1.37
2018-04-11T16:53:42.143Z,1.60
2018-04-11T16:56:09.693Z,2.23
2018-04-11T16:58:37.972Z,1.73
2018-04-11T17:01:05.485Z,1.93
2018-04-11T17:03:33.072Z,1.57
2018-04-11T17:06:01.373Z,1.10
2018-04-11T17:08:28.911Z,1.23
2018-04-11T17:10:57.252Z,1.93
2018-04-11T17:13:24.798Z,1.17
2018-04-11T17:15:52.339Z,1.67
2018-04-11T17:18:19.893Z,1.57
2018-04-11T17:20:59.279Z,1.83
2018-04-11T17:23:38.745Z,1.43
2018-04-11T17:26:19.041Z,1.70
2018-04-11T17:28:58.337Z,2.20
2018-04-11T17:31:28.275Z,2.73
2018-04-11T17:33:55.799Z,2.43
2018-04-11T17:36:23.355Z,2.80
2018-04-11T17:38:51.640Z,3.40
2018-04-11T17:41:19.961Z,1.73
2018-04-11T17:43:47.499Z,1.83
2018-04-11T17:46:15.020Z,2.07
2018-04-11T17:48:42.528Z,2.40
2018-04-11T17:51:10.080Z,1.40
2018-04-11T17:53:37.721Z,1.67
2018-04-11T17:56:06.003Z,1.80
2018-04-11T17:58:34.319Z,1.90
2018-04-11T18:01:01.840Z,1.33
2018-04-11T18:03:29.359Z,2.20
2018-04-11T18:05:57.003Z,3.70
2018-04-11T18:08:24.543Z,2.90
2018-04-11T18:10:52.061Z,1.93
2018-04-11T18:13:20.369Z,2.07
2018-04-11T18:15:47.889Z,2.20
2018-04-11T18:18:15.427Z,1.67
2018-04-11T18:20:43.763Z,1.87
2018-04-11T18:23:11.291Z,2.10
2018-04-11T18:25:38.820Z,1.93
2018-04-11T18:28:07.141Z,1.97
2018-04-11T18:30:35.427Z,1.50
2018-04-11T18:33:04.043Z,2.30
2018-04-11T18:35:31.686Z,1.37
2018-04-11T18:37:59.209Z,2.30
2018-04-11T18:40:27.518Z,1.63
2018-04-11T18:42:55.084Z,1.77
2018-04-11T18:45:22.602Z,1.47
2018-04-11T18:47:50.133Z,1.50
2018-04-11T18:50:17.682Z,1.80
2018-04-11T18:52:45.200Z,1.83
2018-04-11T18:55:13.494Z,1.60
2018-04-11T18:57:41.065Z,1.43
2018-04-11T19:00:08.603Z,1.60
2018-04-11T19:02:36.127Z,1.23
2018-04-11T19:05:03.676Z,1.90
2018-04-11T19:07:31.254Z,1.40
2018-04-11T19:09:58.784Z,1.80
2018-04-11T19:12:26.353Z,1.77
2018-04-11T19:14:53.885Z,1.50
2018-04-11T19:17:21.450Z,1.80
2018-04-11T19:19:49.000Z,3.23
2018-04-11T19:22:16.512Z,2.57
2018-04-11T19:24:44.819Z,3.13
2018-04-11T19:27:12.368Z,2.40
2018-04-11T19:29:39.916Z,1.60
2018-04-11T19:32:08.215Z,1.50
2018-04-11T19:34:35.773Z,1.60
2018-04-11T19:37:03.293Z,1.60
2018-04-11T19:39:30.818Z,2.00
2018-04-11T19:41:58.353Z,1.70
2018-04-11T19:44:26.820Z,2.23
2018-04-11T19:46:54.317Z,3.70
2018-04-11T19:49:21.885Z,1.80
2018-04-11T19:51:49.420Z,1.90
2018-04-11T19:54:17.717Z,1.63
2018-04-11T19:56:45.251Z,1.60
2018-04-11T19:59:12.778Z,1.67
2018-04-11T20:01:41.099Z,1.10
2018-04-11T20:04:08.617Z,1.70
2018-04-11T20:06:36.918Z,2.53
2018-04-11T20:09:04.481Z,1.30
2018-04-11T20:11:32.040Z,2.30
2018-04-11T20:13:59.590Z,2.00
2018-04-11T20:16:27.137Z,1.73
2018-04-11T20:18:54.655Z,2.30
2018-04-11T20:21:22.209Z,1.97
2018-04-11T20:23:49.761Z,1.77
2018-04-11T20:26:17.288Z,2.47
2018-04-11T20:28:44.877Z,1.70
2018-04-11T20:31:13.179Z,2.90
2018-04-11T20:33:40.703Z,1.43
2018-04-11T20:36:08.255Z,1.83
2018-04-11T20:38:35.789Z,2.17
2018-04-11T20:41:03.309Z,2.90
2018-04-11T20:43:30.874Z,2.03
2018-04-11T20:45:58.410Z,1.83
2018-04-11T20:48:25.966Z,1.73
2018-04-11T20:50:53.510Z,1.37
2018-04-11T20:53:21.046Z,1.63
2018-04-11T20:55:48.625Z,1.87
2018-04-11T20:58:16.205Z,1.70
2018-04-11T21:00:43.725Z,1.80
2018-04-11T21:03:11.396Z,1.93
2018-04-11T21:05:38.925Z,2.00
2018-04-11T21:08:07.210Z,1.60
2018-04-11T21:10:35.524Z,1.60
2018-04-11T21:13:03.331Z,1.50
2018-04-11T21:15:30.862Z,1.53
2018-04-11T21:17:58.423Z,1.03
2018-04-11T21:20:25.941Z,1.67
2018-04-11T21:22:53.485Z,2.40
2018-04-11T21:25:21.798Z,2.10
2018-04-11T21:27:49.332Z,1.83
2018-04-11T21:30:16.863Z,1.50
2018-04-11T21:32:44.413Z,1.23
2018-04-11T21:35:11.937Z,1.40
2018-04-11T21:37:39.460Z,2.17
2018-04-11T21:40:07.759Z,1.77
2018-04-11T21:42:35.271Z,1.63
2018-04-11T21:45:02.791Z,1.30
2018-04-11T21:47:30.337Z,1.10
2018-04-11T21:49:57.878Z,1.33
2018-04-11T21:52:25.416Z,1.20
2018-04-11T21:54:53.727Z,1.30
2018-04-11T21:57:21.242Z,1.50
2018-04-11T21:59:48.773Z,1.30
2018-04-11T22:02:16.333Z,1.13
2018-04-11T22:04:43.860Z,1.30
2018-04-11T22:07:11.372Z,1.33
2018-04-11T22:09:38.954Z,1.57
2018-04-11T22:12:07.237Z,1.40
2018-04-11T22:14:35.523Z,1.20
2018-04-11T22:17:03.080Z,1.10
2018-04-11T22:19:30.607Z,1.23
2018-04-11T22:21:58.127Z,1.87
2018-04-11T22:24:25.686Z,1.10
2018-04-11T22:26:53.198Z,1.53
2018-04-11T22:29:21.513Z,1.33
2018-04-11T22:31:49.077Z,1.73
2018-04-11T22:34:16.606Z,1.23
2018-04-11T22:36:44.905Z,1.60
2018-04-11T22:39:12.462Z,1.57
2018-04-11T22:41:40.001Z,1.77
2018-04-11T22:44:08.289Z,1.63
2018-04-11T22:46:35.853Z,1.57
2018-04-11T22:49:03.382Z,1.50
2018-04-11T22:51:30.897Z,2.33
2018-04-11T22:53:58.455Z,1.43
2018-04-11T22:56:25.981Z,1.47
2018-04-11T22:58:53.517Z,1.50
2018-04-11T23:01:21.854Z,1.53
2018-04-11T23:03:49.399Z,1.30
2018-04-11T23:06:16.922Z,1.27
2018-04-11T23:08:45.246Z,1.30
2018-04-11T23:11:12.774Z,0.77
2018-04-11T23:13:40.314Z,1.00
2018-04-11T23:16:08.654Z,1.00
2018-04-11T23:18:36.197Z,1.30
2018-04-11T23:21:03.709Z,1.53
2018-04-11T23:23:32.043Z,1.70
2018-04-11T23:25:59.557Z,1.30
2018-04-11T23:28:27.853Z,1.50
2018-04-11T23:30:55.423Z,1.63
2018-04-11T23:33:22.959Z,1.07
2018-04-11T23:35:50.495Z,1.33
2018-04-11T23:38:18.807Z,0.90
2018-04-11T23:40:46.332Z,1.30
2018-04-11T23:43:14.643Z,1.23
2018-04-11T23:45:42.214Z,1.50
2018-04-11T23:48:09.748Z,1.30
2018-04-11T23:50:37.293Z,1.37
2018-04-11T23:53:05.607Z,1.50
2018-04-11T23:55:33.127Z,1.67
2018-04-11T23:58:01.420Z,1.70
